createdAt,value
2022-11-09T00:00:10.897Z,13.40
2022-11-09T00:02:41.549Z,13.13
2022-11-09T00:05:10.353Z,18.27
2022-11-09T00:07:36.966Z,16.42
2022-11-09T00:10:03.877Z,17.40
2022-11-09T00:12:30.577Z,16.70
2022-11-09T00:14:57.942Z,18.40
2022-11-09T00:17:24.533Z,12.50
2022-11-09T00:19:51.099Z,16.73
2022-11-09T00:22:17.777Z,17.08
2022-11-09T00:24:44.590Z,15.20
2022-11-09T00:27:16.548Z,17.85
2022-11-09T00:29:44.800Z,14.75
2022-11-09T00:32:11.346Z,13.98
2022-11-09T00:34:37.954Z,18.67
2022-11-09T00:37:04.634Z,18.02
2022-11-09T00:39:31.224Z,16.88
2022-11-09T00:41:57.782Z,20.50
2022-11-09T00:44:26.686Z,20.90
2022-11-09T00:46:53.272Z,17.30
2022-11-09T00:49:19.843Z,15.50
2022-11-09T00:51:47.224Z,18.50
2022-11-09T00:54:13.901Z,16.92
2022-11-09T00:56:41.442Z,13.32
2022-11-09T00:59:10.851Z,20.33
2022-11-09T01:01:37.503Z,19.88
2022-11-09T01:04:04.167Z,18.17
2022-11-09T01:06:33.642Z,24.35
2022-11-09T01:09:00.605Z,14.93
2022-11-09T01:11:27.233Z,21.65
2022-11-09T01:13:54.425Z,18.42
2022-11-09T01:16:24.066Z,17.33
2022-11-09T01:18:57.892Z,22.42
2022-11-09T01:21:25.715Z,19.48
2022-11-09T01:23:52.408Z,19.65
2022-11-09T01:26:20.227Z,12.27
2022-11-09T01:28:46.931Z,18.52
2022-11-09T01:31:15.818Z,16.65
2022-11-09T01:33:43.090Z,23.40
2022-11-09T01:36:15.265Z,24.95
2022-11-09T01:38:42.873Z,21.30
2022-11-09T01:41:17.642Z,16.98
2022-11-09T01:43:44.382Z,22.42
2022-11-09T01:46:13.602Z,23.55
2022-11-09T01:49:00.874Z,21.50
2022-11-09T01:51:59.505Z,18.30
2022-11-09T01:54:43.519Z,20.88
2022-11-09T01:57:15.867Z,22.77
2022-11-09T01:59:48.949Z,21.20
2022-11-09T02:02:16.151Z,15.57
2022-11-09T02:04:54.488Z,23.85
2022-11-09T02:07:22.898Z,20.90
2022-11-09T02:10:14.394Z,24.77
2022-11-09T02:12:41.324Z,23.98
2022-11-09T02:15:10.527Z,27.55
2022-11-09T02:17:38.970Z,25.85
2022-11-09T02:20:13.649Z,21.25
2022-11-09T02:22:41.963Z,29.60
2022-11-09T02:25:10.063Z,18.33
2022-11-09T02:27:37.588Z,25.45
2022-11-09T02:30:05.480Z,20.45
2022-11-09T02:32:32.215Z,24.88
2022-11-09T02:34:58.851Z,25.80
2022-11-09T02:37:48.541Z,26.67
2022-11-09T02:40:22.183Z,26.02
2022-11-09T02:42:48.767Z,27.45
2022-11-09T02:45:15.406Z,25.10
2022-11-09T02:47:42.000Z,25.85
2022-11-09T02:50:09.239Z,27.45
2022-11-09T02:52:36.653Z,27.85
2022-11-09T02:55:04.099Z,22.98
2022-11-09T02:57:30.663Z,26.42
2022-11-09T02:59:58.038Z,24.60
2022-11-09T03:02:24.651Z,25.75
2022-11-09T03:04:51.203Z,26.75
2022-11-09T03:07:18.665Z,29.08
2022-11-09T03:09:46.216Z,25.70
2022-11-09T03:12:31.082Z,27.17
2022-11-09T03:14:59.275Z,13.55
2022-11-09T03:17:26.459Z,17.35
2022-11-09T03:19:54.948Z,28.95
2022-11-09T03:22:21.968Z,24.88
2022-11-09T03:24:48.623Z,27.67
2022-11-09T03:27:15.757Z,22.77
2022-11-09T03:29:42.318Z,26.67
2022-11-09T03:32:09.438Z,17.15
2022-11-09T03:34:36.999Z,25.10
2022-11-09T03:37:04.042Z,25.50
2022-11-09T03:39:30.642Z,29.13
2022-11-09T03:41:58.049Z,29.98
2022-11-09T03:44:24.666Z,30.75
2022-11-09T03:46:51.291Z,22.88
2022-11-09T03:49:17.905Z,27.83
2022-11-09T03:52:13.371Z,26.10
2022-11-09T03:54:41.138Z,32.55
2022-11-09T03:57:07.737Z,28.83
2022-11-09T03:59:37.395Z,23.73
2022-11-09T04:02:07.454Z,26.20
2022-11-09T04:04:34.094Z,28.52
2022-11-09T04:07:00.701Z,28.02
2022-11-09T04:09:28.169Z,13.55
2022-11-09T04:11:54.815Z,27.88
2022-11-09T04:14:21.462Z,20.35
2022-11-09T04:17:28.062Z,22.73
2022-11-09T04:20:00.678Z,29.85
2022-11-09T04:22:28.035Z,28.85
2022-11-09T04:24:54.591Z,22.75
2022-11-09T04:27:21.809Z,24.83
2022-11-09T04:29:48.422Z,28.63
2022-11-09T04:32:18.162Z,28.38
2022-11-09T04:34:44.748Z,24.98
2022-11-09T04:37:12.156Z,24.15
2022-11-09T04:39:38.799Z,27.20
2022-11-09T04:42:05.457Z,27.58
2022-11-09T04:44:32.210Z,26.55
2022-11-09T04:46:58.798Z,23.65
2022-11-09T04:49:25.376Z,28.73
2022-11-09T04:51:52.770Z,20.52
2022-11-09T04:54:21.700Z,24.73
2022-11-09T04:56:48.309Z,29.27
2022-11-09T04:59:15.205Z,27.00
2022-11-09T05:01:41.757Z,23.77
2022-11-09T05:04:08.410Z,28.45
2022-11-09T05:06:35.324Z,25.70
2022-11-09T05:09:07.235Z,30.10
2022-11-09T05:11:35.144Z,28.25
2022-11-09T05:14:03.155Z,28.67
2022-11-09T05:16:30.129Z,29.98
2022-11-09T05:18:56.716Z,28.92
2022-11-09T05:21:24.258Z,28.85
2022-11-09T05:23:59.621Z,31.00
2022-11-09T05:26:40.025Z,25.23
2022-11-09T05:29:11.719Z,21.25
2022-11-09T05:31:39.720Z,30.35
2022-11-09T05:34:11.282Z,31.27
2022-11-09T05:36:37.854Z,30.52
2022-11-09T05:39:04.459Z,29.20
2022-11-09T05:41:31.315Z,29.02
2022-11-09T05:43:58.030Z,34.20
2022-11-09T05:46:25.329Z,31.08
2022-11-09T05:48:54.273Z,31.35
2022-11-09T05:51:20.922Z,19.65
2022-11-09T05:53:48.452Z,27.23
2022-11-09T05:56:15.706Z,35.50
2022-11-09T05:58:44.547Z,23.48
2022-11-09T06:01:18.086Z,33.10
2022-11-09T06:03:45.059Z,32.83
2022-11-09T06:06:16.204Z,33.95
2022-11-09T06:08:43.076Z,30.92
2022-11-09T06:11:11.863Z,33.90
2022-11-09T06:13:41.037Z,35.33
2022-11-09T06:16:10.238Z,41.05
2022-11-09T06:18:37.367Z,38.95
2022-11-09T06:21:05.823Z,40.90
2022-11-09T06:23:33.430Z,34.35
2022-11-09T06:26:06.509Z,47.58
2022-11-09T06:28:33.776Z,39.60
2022-11-09T06:31:04.555Z,39.15
2022-11-09T06:33:35.698Z,48.13
2022-11-09T06:36:03.344Z,48.03
2022-11-09T06:38:37.608Z,40.70
2022-11-09T06:41:04.379Z,41.05
2022-11-09T06:43:31.040Z,39.55
2022-11-09T06:46:01.034Z,39.05
2022-11-09T06:48:27.730Z,44.83
2022-11-09T06:50:54.311Z,38.60
2022-11-09T06:53:21.300Z,38.22
2022-11-09T06:55:52.756Z,39.53
2022-11-09T06:58:19.831Z,41.65
2022-11-09T07:00:47.440Z,37.95
2022-11-09T07:03:19.157Z,31.55
2022-11-09T07:05:46.981Z,29.27
2022-11-09T07:08:17.360Z,29.90
2022-11-09T07:10:44.267Z,24.63
2022-11-09T07:13:11.711Z,25.58
2022-11-09T07:15:39.099Z,30.10
2022-11-09T07:18:08.620Z,25.25
2022-11-09T07:20:35.323Z,23.45
2022-11-09T07:23:04.269Z,20.98
2022-11-09T07:25:32.193Z,27.80
2022-11-09T07:28:10.088Z,25.10
2022-11-09T07:30:37.518Z,23.52
2022-11-09T07:33:11.574Z,27.70
2022-11-09T07:35:38.982Z,22.52
2022-11-09T07:38:05.614Z,25.33
2022-11-09T07:40:32.337Z,25.60
2022-11-09T07:43:03.763Z,18.02
2022-11-09T07:45:31.206Z,30.17
2022-11-09T07:48:03.292Z,31.00
2022-11-09T07:50:31.242Z,28.02
2022-11-09T07:53:00.572Z,23.23
2022-11-09T07:55:29.387Z,17.33
2022-11-09T07:57:57.851Z,32.03
2022-11-09T08:00:25.814Z,32.40
2022-11-09T08:02:55.389Z,28.45
2022-11-09T08:05:22.358Z,30.73
2022-11-09T08:07:54.075Z,24.60
2022-11-09T08:10:22.203Z,30.10
2022-11-09T08:13:01.335Z,22.50
2022-11-09T08:15:29.247Z,26.73
2022-11-09T08:18:00.216Z,23.08
2022-11-09T08:20:26.875Z,27.17
2022-11-09T08:22:53.494Z,26.48
2022-11-09T08:25:20.210Z,17.38
2022-11-09T08:27:46.952Z,16.75
2022-11-09T08:30:19.843Z,17.95
2022-11-09T08:32:47.346Z,20.27
2022-11-09T08:35:17.911Z,17.38
2022-11-09T08:37:48.414Z,17.35
2022-11-09T08:40:18.519Z,20.55
2022-11-09T08:42:47.325Z,17.27
2022-11-09T08:45:14.846Z,15.40
2022-11-09T08:47:41.852Z,12.25
2022-11-09T08:50:10.222Z,16.75
2022-11-09T08:52:36.945Z,13.98
2022-11-09T08:55:07.745Z,17.10
2022-11-09T08:57:34.388Z,12.65
2022-11-09T09:00:01.771Z,17.65
2022-11-09T09:02:28.399Z,16.67
2022-11-09T09:04:55.322Z,14.98
2022-11-09T09:07:21.998Z,13.93
2022-11-09T09:09:49.130Z,15.00
2022-11-09T09:12:15.919Z,12.27
2022-11-09T09:14:46.300Z,17.85
2022-11-09T09:17:13.059Z,16.98
2022-11-09T09:19:39.646Z,15.80
2022-11-09T09:22:07.405Z,17.25
2022-11-09T09:24:34.179Z,13.80
2022-11-09T09:27:00.959Z,16.05
2022-11-09T09:29:27.603Z,15.95
2022-11-09T09:31:54.225Z,16.73
2022-11-09T09:34:20.919Z,16.38
2022-11-09T09:36:48.404Z,13.07
2022-11-09T09:39:15.543Z,15.45
2022-11-09T09:41:54.495Z,13.38
2022-11-09T09:44:26.879Z,13.50
2022-11-09T09:47:17.243Z,13.60
2022-11-09T09:49:54.417Z,16.75
2022-11-09T09:52:32.853Z,11.48
2022-11-09T09:55:24.644Z,18.52
2022-11-09T09:57:56.783Z,16.67
2022-11-09T10:00:26.294Z,15.93
2022-11-09T10:02:54.507Z,13.50
2022-11-09T10:05:28.832Z,14.98
2022-11-09T10:08:04.510Z,20.13
2022-11-09T10:10:48.723Z,19.88
2022-11-09T10:13:39.865Z,17.23
2022-11-09T10:16:49.595Z,16.55
2022-11-09T10:19:27.874Z,15.88
2022-11-09T10:22:06.784Z,15.35
2022-11-09T10:25:20.871Z,15.90
2022-11-09T10:28:01.760Z,14.02
2022-11-09T10:30:30.188Z,17.10
2022-11-09T10:33:01.985Z,16.95
2022-11-09T10:35:37.798Z,18.15
2022-11-09T10:38:04.630Z,18.17
2022-11-09T10:40:47.796Z,17.60
2022-11-09T10:43:15.236Z,19.80
2022-11-09T10:45:43.632Z,16.65
2022-11-09T10:48:13.238Z,19.50
2022-11-09T10:50:39.767Z,18.08
2022-11-09T10:53:09.966Z,19.85
2022-11-09T10:55:37.833Z,18.30
2022-11-09T10:58:34.561Z,16.70
2022-11-09T11:01:13.403Z,16.10
2022-11-09T11:03:41.427Z,15.75
2022-11-09T11:06:28.317Z,18.35
2022-11-09T11:08:57.893Z,16.15
2022-11-09T11:11:36.057Z,11.98
2022-11-09T11:14:35.204Z,21.13
2022-11-09T11:17:03.935Z,22.10
2022-11-09T11:19:40.402Z,21.17
2022-11-09T11:22:15.977Z,22.17
2022-11-09T11:25:03.395Z,20.23
2022-11-09T11:27:41.891Z,21.20
2022-11-09T11:30:16.359Z,22.25
2022-11-09T11:32:48.861Z,22.05
2022-11-09T11:35:52.249Z,22.85
2022-11-09T11:38:32.139Z,20.35
2022-11-09T11:41:21.698Z,19.25
2022-11-09T11:43:57.728Z,19.50
2022-11-09T11:46:45.940Z,22.90
2022-11-09T11:49:28.365Z,23.50
2022-11-09T11:52:26.573Z,20.42
2022-11-09T11:54:59.070Z,19.25
2022-11-09T11:57:43.734Z,19.48
2022-11-09T12:00:16.510Z,19.77
2022-11-09T12:03:15.973Z,15.82
2022-11-09T12:06:22.339Z,16.75
2022-11-09T12:08:53.525Z,19.05
2022-11-09T12:11:37.422Z,21.95
2022-11-09T12:14:12.694Z,19.42
2022-11-09T12:16:49.343Z,23.40
2022-11-09T12:19:42.246Z,23.77
2022-11-09T12:22:18.970Z,16.70
2022-11-09T12:25:00.026Z,20.17
2022-11-09T12:27:41.878Z,24.80
2022-11-09T12:30:21.500Z,25.40
2022-11-09T12:33:03.965Z,24.30
2022-11-09T12:35:36.699Z,22.98
2022-11-09T12:38:24.885Z,27.05
2022-11-09T12:41:02.312Z,32.50
2022-11-09T12:43:32.670Z,20.33
2022-11-09T12:46:01.713Z,22.88
2022-11-09T12:48:31.454Z,27.88
2022-11-09T12:51:01.124Z,26.23
2022-11-09T12:53:32.512Z,24.35
2022-11-09T12:56:02.016Z,24.25
2022-11-09T12:58:32.561Z,25.95
2022-11-09T13:01:20.831Z,27.60
2022-11-09T13:03:56.971Z,27.25
2022-11-09T13:09:16.184Z,23.52
2022-11-09T13:11:49.021Z,28.30
2022-11-09T13:14:30.546Z,26.65
2022-11-09T13:17:03.101Z,27.83
2022-11-09T13:19:35.695Z,26.85
2022-11-09T13:22:12.194Z,29.15
2022-11-09T13:25:29.934Z,27.70
2022-11-09T13:27:57.810Z,22.52
2022-11-09T13:30:24.808Z,25.98
2022-11-09T13:33:06.434Z,27.33
2022-11-09T13:35:42.088Z,20.48
2022-11-09T13:38:23.092Z,23.50
2022-11-09T13:41:00.356Z,23.75
2022-11-09T13:43:37.438Z,27.45
2022-11-09T13:46:24.781Z,25.85
2022-11-09T13:48:55.131Z,26.50
2022-11-09T13:51:47.391Z,22.20
2022-11-09T13:54:36.755Z,24.70
2022-11-09T13:57:06.798Z,25.67
2022-11-09T13:59:49.128Z,16.92
2022-11-09T14:02:22.963Z,22.35
2022-11-09T14:04:50.109Z,25.52
2022-11-09T14:07:24.451Z,23.85
2022-11-09T14:10:05.126Z,25.08
2022-11-09T14:12:57.192Z,22.60
2022-11-09T14:16:06.029Z,22.10
2022-11-09T14:18:47.503Z,20.23
2022-11-09T14:21:43.431Z,22.85
2022-11-09T14:24:17.757Z,28.10
2022-11-09T14:27:04.870Z,22.60
2022-11-09T14:29:33.263Z,21.70
2022-11-09T14:32:25.319Z,20.63
2022-11-09T14:34:52.125Z,21.50
2022-11-09T14:37:19.704Z,22.98
2022-11-09T14:39:51.963Z,22.55
2022-11-09T14:42:21.410Z,21.05
2022-11-09T14:44:49.179Z,22.40
2022-11-09T14:47:19.207Z,23.25
2022-11-09T14:49:46.351Z,22.83
2022-11-09T14:52:17.389Z,22.13
2022-11-09T14:54:45.821Z,20.38
2022-11-09T14:57:16.503Z,21.55
2022-11-09T14:59:45.267Z,22.10
2022-11-09T15:02:20.213Z,24.50
2022-11-09T15:05:25.246Z,24.33
2022-11-09T15:07:52.176Z,24.10
2022-11-09T15:10:20.430Z,26.25
2022-11-09T15:12:51.691Z,22.20
2022-11-09T15:15:21.421Z,24.02
2022-11-09T15:17:51.356Z,19.80
2022-11-09T15:20:20.977Z,18.50
2022-11-09T15:23:13.439Z,21.02
2022-11-09T15:25:43.535Z,19.92
2022-11-09T15:28:24.699Z,22.05
2022-11-09T15:30:54.478Z,19.67
2022-11-09T15:33:41.005Z,18.83
2022-11-09T15:36:48.620Z,23.40
2022-11-09T15:41:43.614Z,21.25
2022-11-09T15:44:17.322Z,25.27
2022-11-09T15:46:49.146Z,24.20
2022-11-09T15:49:28.992Z,25.08
2022-11-09T15:51:56.563Z,25.13
2022-11-09T15:54:46.987Z,25.55
2022-11-09T15:57:19.425Z,22.10
2022-11-09T15:59:48.585Z,25.73
2022-11-09T16:02:15.668Z,31.65
2022-11-09T16:04:42.253Z,26.10
2022-11-09T16:07:19.885Z,31.13
2022-11-09T16:09:46.503Z,30.08
2022-11-09T16:12:13.100Z,30.42
2022-11-09T16:14:43.831Z,28.40
2022-11-09T16:17:10.395Z,28.13
2022-11-09T16:19:37.196Z,24.95
2022-11-09T16:22:03.939Z,23.58
2022-11-09T16:24:47.033Z,27.98
2022-11-09T16:27:43.017Z,24.65
2022-11-09T16:30:01.649Z,24.67
2022-11-09T16:32:28.755Z,27.75
2022-11-09T16:35:15.348Z,30.65
2022-11-09T16:40:22.564Z,24.13
2022-11-09T16:42:50.762Z,24.40
2022-11-09T16:45:17.469Z,25.77
2022-11-09T16:47:53.976Z,24.33
2022-11-09T16:50:20.730Z,18.45
2022-11-09T16:52:47.392Z,28.27
2022-11-09T16:55:14.396Z,32.90
2022-11-09T16:57:41.826Z,33.97
2022-11-09T17:00:08.919Z,36.03
2022-11-09T17:02:35.590Z,31.38
2022-11-09T17:05:02.188Z,31.50
2022-11-09T17:07:28.979Z,34.17
2022-11-09T17:09:55.688Z,32.50
2022-11-09T17:12:22.301Z,32.67
2022-11-09T17:15:00.369Z,35.80
2022-11-09T17:17:27.859Z,34.35
2022-11-09T17:19:54.435Z,35.55
2022-11-09T17:22:23.950Z,30.45
2022-11-09T17:24:59.357Z,46.05
2022-11-09T17:27:26.433Z,43.53
2022-11-09T17:29:53.099Z,46.47
2022-11-09T17:32:27.232Z,41.47
2022-11-09T17:34:54.670Z,42.17
2022-11-09T17:37:24.513Z,40.97
2022-11-09T17:39:51.197Z,40.22
2022-11-09T17:42:20.490Z,35.17
2022-11-09T17:44:47.850Z,45.75
2022-11-09T17:47:14.464Z,45.78
2022-11-09T17:49:41.169Z,19.73
2022-11-09T17:52:10.116Z,36.15
2022-11-09T17:54:39.392Z,44.72
2022-11-09T17:57:06.507Z,46.58
2022-11-09T17:59:35.404Z,48.90
2022-11-09T18:02:02.282Z,54.45
2022-11-09T18:04:28.926Z,36.80
2022-11-09T18:06:55.606Z,43.67
2022-11-09T18:12:10.534Z,41.30
2022-11-09T18:14:37.144Z,47.42
2022-11-09T18:17:03.750Z,46.35
2022-11-09T18:19:32.527Z,46.25
2022-11-09T18:22:02.649Z,32.95
2022-11-09T18:24:30.332Z,46.05
2022-11-09T18:26:58.559Z,50.08
2022-11-09T18:29:25.616Z,53.28
2022-11-09T18:31:52.320Z,48.08
2022-11-09T18:34:19.608Z,47.75
2022-11-09T18:36:46.283Z,57.72
2022-11-09T18:39:12.877Z,35.25
2022-11-09T18:41:41.043Z,60.00
2022-11-09T18:44:07.830Z,54.70
2022-11-09T18:46:35.436Z,57.33
2022-11-09T18:49:02.921Z,53.70
2022-11-09T18:51:29.543Z,54.30
2022-11-09T18:53:56.611Z,50.35
2022-11-09T18:56:25.800Z,56.85
2022-11-09T18:58:54.923Z,49.88
2022-11-09T19:01:23.640Z,54.75
2022-11-09T19:03:55.143Z,58.85
2022-11-09T19:06:25.482Z,51.60
2022-11-09T19:09:13.182Z,50.80
2022-11-09T19:11:39.825Z,55.63
2022-11-09T19:14:06.663Z,51.53
2022-11-09T19:16:33.287Z,47.20
2022-11-09T19:19:00.009Z,57.45
2022-11-09T19:21:41.578Z,30.67
2022-11-09T19:24:12.347Z,43.78
2022-11-09T19:26:39.047Z,43.72
2022-11-09T19:29:13.088Z,50.65
2022-11-09T19:31:43.211Z,39.60
2022-11-09T19:34:11.749Z,45.70
2022-11-09T19:36:40.030Z,42.70
2022-11-09T19:39:06.634Z,45.85
2022-11-09T19:41:33.266Z,44.72
2022-11-09T19:44:00.672Z,41.22
2022-11-09T19:46:31.068Z,48.85
2022-11-09T19:48:58.077Z,33.22
2022-11-09T19:51:25.291Z,43.53
2022-11-09T19:53:55.672Z,53.58
2022-11-09T19:56:24.480Z,40.22
2022-11-09T19:58:53.758Z,49.10
2022-11-09T20:01:20.684Z,46.55
2022-11-09T20:03:51.796Z,42.25
2022-11-09T20:06:20.000Z,26.55
2022-11-09T20:08:47.468Z,39.05
2022-11-09T20:11:36.736Z,45.55
2022-11-09T20:14:05.010Z,36.85
2022-11-09T20:16:35.509Z,43.15
2022-11-09T20:19:03.745Z,34.15
2022-11-09T20:21:30.641Z,33.63
2022-11-09T20:23:57.772Z,40.30
2022-11-09T20:26:24.408Z,32.50
2022-11-09T20:28:53.499Z,30.05
2022-11-09T20:31:21.193Z,34.17
2022-11-09T20:33:49.526Z,32.53
2022-11-09T20:36:16.595Z,33.78
2022-11-09T20:38:43.469Z,21.40
2022-11-09T20:41:11.751Z,26.25
2022-11-09T20:43:38.802Z,21.15
2022-11-09T20:46:19.066Z,26.88
2022-11-09T20:48:54.059Z,27.10
2022-11-09T20:51:22.916Z,31.95
2022-11-09T20:53:50.929Z,27.73
2022-11-09T20:56:26.096Z,24.05
2022-11-09T20:59:09.800Z,26.23
2022-11-09T21:01:53.059Z,22.90
2022-11-09T21:04:21.331Z,24.00
2022-11-09T21:06:48.197Z,26.08
2022-11-09T21:09:14.794Z,24.08
2022-11-09T21:12:01.882Z,25.08
2022-11-09T21:14:28.447Z,31.60
2022-11-09T21:16:54.990Z,23.08
2022-11-09T21:19:21.841Z,27.00
2022-11-09T21:21:51.890Z,25.08
2022-11-09T21:24:37.847Z,24.58
2022-11-09T21:27:23.023Z,23.90
2022-11-09T21:29:58.295Z,18.15
2022-11-09T21:32:25.061Z,21.70
2022-11-09T21:34:51.827Z,21.10
2022-11-09T21:37:18.525Z,19.08
2022-11-09T21:39:45.264Z,20.67
2022-11-09T21:42:12.106Z,18.55
2022-11-09T21:44:40.663Z,20.63
2022-11-09T21:47:08.144Z,20.73
2022-11-09T21:49:34.907Z,21.83
2022-11-09T21:52:01.894Z,22.08
2022-11-09T21:54:28.879Z,21.83
2022-11-09T21:56:55.790Z,22.17
2022-11-09T21:59:22.461Z,22.23
2022-11-09T22:01:49.120Z,19.10
2022-11-09T22:04:15.996Z,22.58
2022-11-09T22:06:43.545Z,19.73
2022-11-09T22:09:18.015Z,19.95
2022-11-09T22:12:03.922Z,20.90
2022-11-09T22:14:49.073Z,21.88
2022-11-09T22:17:16.562Z,15.23
2022-11-09T22:20:01.908Z,24.98
2022-11-09T22:22:31.634Z,24.27
2022-11-09T22:24:58.475Z,22.17
2022-11-09T22:27:25.196Z,26.70
2022-11-09T22:29:51.958Z,24.73
2022-11-09T22:32:18.640Z,32.53
2022-11-09T22:34:45.335Z,24.95
2022-11-09T22:37:12.981Z,24.50
2022-11-09T22:39:44.361Z,27.08
2022-11-09T22:42:13.985Z,24.33
2022-11-09T22:44:40.567Z,24.08
2022-11-09T22:47:07.201Z,27.77
2022-11-09T22:49:37.087Z,25.98
2022-11-09T22:52:04.859Z,24.10
2022-11-09T22:54:31.590Z,26.65
2022-11-09T22:56:59.997Z,28.65
2022-11-09T22:59:26.701Z,26.70
2022-11-09T23:01:53.480Z,26.40
2022-11-09T23:04:20.213Z,26.80
2022-11-09T23:06:46.914Z,27.55
2022-11-09T23:09:13.666Z,18.77
2022-11-09T23:11:40.289Z,33.75
2022-11-09T23:14:08.923Z,26.42
2022-11-09T23:16:35.532Z,21.27
2022-11-09T23:19:02.265Z,32.13
2022-11-09T23:21:32.772Z,28.90
2022-11-09T23:24:07.981Z,26.65
2022-11-09T23:26:35.121Z,29.10
2022-11-09T23:29:01.776Z,27.17
2022-11-09T23:31:28.480Z,31.05
2022-11-09T23:33:56.996Z,29.15
2022-11-09T23:36:25.785Z,24.38
2022-11-09T23:38:52.946Z,25.00
2022-11-09T23:41:19.818Z,29.60
2022-11-09T23:43:49.501Z,29.65
2022-11-09T23:46:17.433Z,28.35
2022-11-09T23:48:44.754Z,26.67
2022-11-09T23:51:11.921Z,24.55
2022-11-09T23:53:39.793Z,27.67
2022-11-09T23:56:12.056Z,28.88
2022-11-09T23:58:39.088Z,30.13
